createdAt,value
2019-05-29T00:00:27.077Z,96996.00
2019-05-29T00:02:58.261Z,97007.00
2019-05-29T00:05:29.638Z,97005.00
2019-05-29T00:08:00.778Z,97007.00
2019-05-29T00:10:32.365Z,97007.00
2019-05-29T00:13:04.019Z,97020.00
2019-05-29T00:15:35.332Z,97016.00
2019-05-29T00:18:06.780Z,97022.00
2019-05-29T00:20:38.378Z,97019.00
2019-05-29T00:23:10.492Z,97018.00
2019-05-29T00:25:41.984Z,97018.00
2019-05-29T00:28:14.759Z,97026.00
2019-05-29T00:30:47.559Z,97030.00
2019-05-29T00:33:19.122Z,97032.00
2019-05-29T00:35:50.703Z,97030.00
2019-05-29T00:38:21.880Z,97040.00
2019-05-29T00:40:53.129Z,97024.00
2019-05-29T00:43:24.790Z,97039.00
2019-05-29T00:45:55.909Z,97031.00
2019-05-29T00:48:27.051Z,97054.00
2019-05-29T00:50:58.456Z,97038.00
2019-05-29T00:53:29.777Z,97039.00
2019-05-29T00:56:01.362Z,97042.00
2019-05-29T00:58:32.889Z,97046.00
2019-05-29T01:01:05.077Z,97056.00
2019-05-29T01:03:36.524Z,97047.00
2019-05-29T01:06:07.893Z,97050.00
2019-05-29T01:08:39.114Z,97048.00
2019-05-29T01:11:10.634Z,97045.00
2019-05-29T01:13:41.923Z,97050.00
2019-05-29T01:16:13.398Z,97056.00
2019-05-29T01:18:44.740Z,97056.00
2019-05-29T01:21:16.106Z,97056.00
2019-05-29T01:23:47.417Z,97059.00
2019-05-29T01:26:18.997Z,97055.00
2019-05-29T01:28:50.705Z,97050.00
2019-05-29T01:31:21.884Z,97058.00
2019-05-29T01:33:53.121Z,97059.00
2019-05-29T01:36:25.056Z,97046.00
2019-05-29T01:38:56.198Z,97060.00
2019-05-29T01:41:27.598Z,97067.00
2019-05-29T01:43:59.230Z,97064.00
2019-05-29T01:46:30.563Z,97063.00
2019-05-29T01:49:01.863Z,97084.00
2019-05-29T01:51:33.051Z,97071.00
2019-05-29T01:54:04.833Z,97076.00
2019-05-29T01:56:36.033Z,97085.00
2019-05-29T01:59:07.356Z,97087.00
2019-05-29T02:01:38.571Z,97092.00
2019-05-29T02:04:09.887Z,97091.00
2019-05-29T02:06:41.063Z,97098.00
2019-05-29T02:09:12.284Z,97103.00
2019-05-29T02:11:43.429Z,97101.00
2019-05-29T02:14:14.956Z,97105.00
2019-05-29T02:16:46.167Z,97105.00
2019-05-29T02:19:17.782Z,97110.00
2019-05-29T02:21:49.076Z,97111.00
2019-05-29T02:24:21.148Z,97108.00
2019-05-29T02:26:52.512Z,97124.00
2019-05-29T02:29:24.864Z,97122.00
2019-05-29T02:31:56.548Z,97130.00
2019-05-29T02:34:29.699Z,97128.00
2019-05-29T02:37:00.802Z,97137.00
2019-05-29T02:39:32.430Z,97152.00
2019-05-29T02:42:03.833Z,97146.00
2019-05-29T02:44:35.111Z,97151.00
2019-05-29T02:47:06.287Z,97142.00
2019-05-29T02:49:37.522Z,97158.00
2019-05-29T02:52:09.274Z,97162.00
2019-05-29T02:54:40.508Z,97160.00
2019-05-29T02:57:11.743Z,97166.00
2019-05-29T02:59:43.525Z,97170.00
2019-05-29T03:02:14.736Z,97176.00
2019-05-29T03:04:45.994Z,97169.00
2019-05-29T03:07:17.321Z,97183.00
2019-05-29T03:09:49.010Z,97179.00
2019-05-29T03:12:20.563Z,97197.00
2019-05-29T03:14:52.219Z,97196.00
2019-05-29T03:17:23.749Z,97212.00
2019-05-29T03:19:55.714Z,97211.00
2019-05-29T03:22:28.786Z,97212.00
2019-05-29T03:25:00.175Z,97228.00
2019-05-29T03:27:31.953Z,97225.00
2019-05-29T03:30:04.760Z,97228.00
2019-05-29T03:32:45.526Z,97236.00
2019-05-29T03:35:09.342Z,97241.00
2019-05-29T03:37:40.537Z,97238.00
2019-05-29T03:40:12.572Z,97240.00
2019-05-29T03:42:44.112Z,97245.00
2019-05-29T03:45:16.794Z,97249.00
2019-05-29T03:47:47.952Z,97258.00
2019-05-29T03:50:19.584Z,97262.00
2019-05-29T03:52:51.094Z,97279.00
2019-05-29T03:55:22.347Z,97275.00
2019-05-29T03:57:53.461Z,97279.00
2019-05-29T04:00:29.891Z,97283.00
2019-05-29T04:03:16.730Z,97293.00
2019-05-29T04:05:48.241Z,97301.00
2019-05-29T04:08:19.455Z,97297.00
2019-05-29T04:10:51.162Z,97303.00
2019-05-29T04:13:22.422Z,97308.00
2019-05-29T04:15:56.357Z,97314.00
2019-05-29T04:18:29.700Z,97309.00
2019-05-29T04:21:02.804Z,97321.00
2019-05-29T04:23:36.418Z,97315.00
2019-05-29T04:26:09.966Z,97331.00
2019-05-29T04:28:41.323Z,97330.00
2019-05-29T04:31:12.617Z,97336.00
2019-05-29T04:33:44.149Z,97343.00
2019-05-29T04:36:15.461Z,97347.00
2019-05-29T04:38:46.674Z,97354.00
2019-05-29T04:41:18.035Z,97358.00
2019-05-29T04:43:49.330Z,97369.00
2019-05-29T04:46:20.888Z,97373.00
2019-05-29T04:48:52.121Z,97376.00
2019-05-29T04:51:23.214Z,97388.00
2019-05-29T04:53:54.459Z,97382.00
2019-05-29T04:56:25.536Z,97385.00
2019-05-29T04:58:57.310Z,97393.00
2019-05-29T05:01:28.987Z,97404.00
2019-05-29T05:04:00.655Z,97395.00
2019-05-29T05:06:31.803Z,97405.00
2019-05-29T05:09:03.827Z,97412.00
2019-05-29T05:11:35.464Z,97426.00
2019-05-29T05:14:07.090Z,97423.00
2019-05-29T05:16:38.555Z,97425.00
2019-05-29T05:19:10.453Z,97433.00
2019-05-29T05:21:41.647Z,97438.00
2019-05-29T05:24:12.757Z,97444.00
2019-05-29T05:26:44.212Z,97436.00
2019-05-29T05:29:15.438Z,97435.00
2019-05-29T05:31:46.713Z,97446.00
2019-05-29T05:34:18.336Z,97449.00
2019-05-29T05:36:50.197Z,97442.00
2019-05-29T05:39:21.677Z,97458.00
2019-05-29T05:41:53.246Z,97456.00
2019-05-29T05:44:24.387Z,97459.00
2019-05-29T05:46:56.312Z,97463.00
2019-05-29T05:49:27.497Z,97475.00
2019-05-29T05:51:59.147Z,97467.00
2019-05-29T05:54:31.275Z,97474.00
2019-05-29T05:57:02.560Z,97480.00
2019-05-29T05:59:33.697Z,97482.00
2019-05-29T06:02:04.993Z,97485.00
2019-05-29T06:04:37.885Z,97480.00
2019-05-29T06:07:09.279Z,97494.00
2019-05-29T06:09:40.527Z,97498.00
2019-05-29T06:12:12.037Z,97501.00
2019-05-29T06:14:43.531Z,97495.00
2019-05-29T06:17:14.784Z,97501.00
2019-05-29T06:19:46.268Z,97516.00
2019-05-29T06:22:17.480Z,97511.00
2019-05-29T06:24:48.837Z,97513.00
2019-05-29T06:27:20.219Z,97522.00
2019-05-29T06:29:51.502Z,97530.00
2019-05-29T06:32:23.308Z,97533.00
2019-05-29T06:34:54.793Z,97525.00
2019-05-29T06:37:25.944Z,97535.00
2019-05-29T06:39:57.773Z,97533.00
2019-05-29T06:42:29.843Z,97539.00
2019-05-29T06:45:01.363Z,97533.00
2019-05-29T06:47:34.246Z,97545.00
2019-05-29T06:50:07.588Z,97546.00
2019-05-29T06:52:39.484Z,97550.00
2019-05-29T06:55:10.898Z,97556.00
2019-05-29T06:57:42.732Z,97556.00
2019-05-29T07:00:34.009Z,97560.00
2019-05-29T07:02:49.382Z,97556.00
2019-05-29T07:05:20.638Z,97555.00
2019-05-29T07:07:51.912Z,97575.00
2019-05-29T07:10:23.232Z,97573.00
2019-05-29T07:12:54.715Z,97575.00
2019-05-29T07:15:26.101Z,97581.00
2019-05-29T07:17:57.618Z,97590.00
2019-05-29T07:20:29.280Z,97583.00
2019-05-29T07:23:00.560Z,97574.00
2019-05-29T07:25:31.738Z,97577.00
2019-05-29T07:28:03.324Z,97585.00
2019-05-29T07:30:34.580Z,97590.00
2019-05-29T07:33:05.873Z,97608.00
2019-05-29T07:35:37.219Z,97604.00
2019-05-29T07:38:08.605Z,97607.00
2019-05-29T07:40:40.631Z,97609.00
2019-05-29T07:43:12.853Z,97617.00
2019-05-29T07:45:44.141Z,97625.00
2019-05-29T07:48:15.469Z,97627.00
2019-05-29T07:50:46.745Z,97624.00
2019-05-29T07:53:18.372Z,97626.00
2019-05-29T07:55:49.630Z,97629.00
2019-05-29T07:58:21.009Z,97636.00
2019-05-29T08:01:09.798Z,97635.00
2019-05-29T08:03:25.318Z,97628.00
2019-05-29T08:05:56.581Z,97636.00
2019-05-29T08:08:28.824Z,97640.00
2019-05-29T08:11:00.549Z,97650.00
2019-05-29T08:13:31.712Z,97646.00
2019-05-29T08:16:03.449Z,97651.00
2019-05-29T08:18:34.935Z,97646.00
2019-05-29T08:21:06.196Z,97649.00
2019-05-29T08:23:37.399Z,97656.00
2019-05-29T08:26:08.964Z,97650.00
2019-05-29T08:28:40.475Z,97658.00
2019-05-29T08:31:12.135Z,97660.00
2019-05-29T08:33:44.776Z,97661.00
2019-05-29T08:36:16.589Z,97669.00
2019-05-29T08:38:47.901Z,97664.00
2019-05-29T08:41:19.165Z,97665.00
2019-05-29T08:43:50.861Z,97665.00
2019-05-29T08:46:23.241Z,97674.00
2019-05-29T08:48:54.443Z,97680.00
2019-05-29T08:51:25.625Z,97680.00
2019-05-29T08:53:57.032Z,97687.00
2019-05-29T08:56:28.331Z,97691.00
2019-05-29T08:58:59.841Z,97695.00
2019-05-29T09:01:31.288Z,97691.00
2019-05-29T09:04:03.678Z,97692.00
2019-05-29T09:06:34.872Z,97700.00
2019-05-29T09:09:08.633Z,97702.00
2019-05-29T09:11:39.842Z,97705.00
2019-05-29T09:14:11.048Z,97705.00
2019-05-29T09:16:42.610Z,97708.00
2019-05-29T09:19:14.287Z,97710.00
2019-05-29T09:21:45.628Z,97716.00
2019-05-29T09:24:17.556Z,97719.00
2019-05-29T09:26:49.329Z,97718.00
2019-05-29T09:29:23.374Z,97721.00
2019-05-29T09:31:54.115Z,97722.00
2019-05-29T09:34:25.871Z,97726.00
2019-05-29T09:36:57.126Z,97727.00
2019-05-29T09:39:28.399Z,97723.00
2019-05-29T09:41:59.769Z,97735.00
2019-05-29T09:44:38.462Z,97735.00
2019-05-29T09:47:04.056Z,97737.00
2019-05-29T09:49:36.821Z,97738.00
2019-05-29T09:52:07.982Z,97740.00
2019-05-29T09:54:39.123Z,97746.00
2019-05-29T09:57:10.367Z,97751.00
2019-05-29T09:59:42.016Z,97745.00
2019-05-29T10:02:13.299Z,97748.00
2019-05-29T10:04:44.549Z,97748.00
2019-05-29T10:07:16.348Z,97748.00
2019-05-29T10:09:47.554Z,97746.00
2019-05-29T10:12:18.987Z,97744.00
2019-05-29T10:14:51.368Z,97738.00
2019-05-29T10:17:24.004Z,97756.00
2019-05-29T10:19:55.901Z,97748.00
2019-05-29T10:22:28.793Z,97752.00
2019-05-29T10:25:00.573Z,97758.00
2019-05-29T10:27:33.392Z,97755.00
2019-05-29T10:30:05.119Z,97762.00
2019-05-29T10:32:36.427Z,97758.00
2019-05-29T10:35:07.897Z,97762.00
2019-05-29T10:37:39.193Z,97761.00
2019-05-29T10:40:11.993Z,97752.00
2019-05-29T10:42:43.304Z,97778.00
2019-05-29T10:45:15.799Z,97766.00
2019-05-29T10:47:47.447Z,97761.00
2019-05-29T10:50:18.830Z,97761.00
2019-05-29T10:52:50.412Z,97770.00
2019-05-29T10:55:24.556Z,97761.00
2019-05-29T10:57:56.076Z,97768.00
2019-05-29T11:00:27.576Z,97762.00
2019-05-29T11:02:59.675Z,97754.00
2019-05-29T11:05:31.286Z,97772.00
2019-05-29T11:08:02.490Z,97772.00
2019-05-29T11:10:33.686Z,97779.00
2019-05-29T11:13:04.974Z,97779.00
2019-05-29T11:15:36.217Z,97788.00
2019-05-29T11:18:07.415Z,97775.00
2019-05-29T11:20:38.693Z,97772.00
2019-05-29T11:23:10.345Z,97770.00
2019-05-29T11:25:42.222Z,97782.00
2019-05-29T11:28:13.865Z,97775.00
2019-05-29T11:30:45.036Z,97770.00
2019-05-29T11:33:16.559Z,97776.00
2019-05-29T11:35:58.349Z,97770.00
2019-05-29T11:38:21.440Z,97772.00
2019-05-29T11:41:20.231Z,97776.00
2019-05-29T11:43:26.688Z,97793.00
2019-05-29T11:45:59.491Z,97778.00
2019-05-29T11:48:30.854Z,97777.00
2019-05-29T11:51:02.498Z,97783.00
2019-05-29T11:53:34.119Z,97789.00
2019-05-29T11:56:05.558Z,97791.00
2019-05-29T11:58:36.698Z,97789.00
2019-05-29T12:01:07.940Z,97793.00
2019-05-29T12:04:05.985Z,97796.00
2019-05-29T12:06:12.170Z,97792.00
2019-05-29T12:08:43.450Z,97792.00
2019-05-29T12:11:14.641Z,97793.00
2019-05-29T12:13:45.849Z,97791.00
2019-05-29T12:16:17.251Z,97793.00
2019-05-29T12:18:48.777Z,97798.00
2019-05-29T12:21:20.347Z,97797.00
2019-05-29T12:23:51.998Z,97797.00
2019-05-29T12:26:23.688Z,97799.00
2019-05-29T12:29:03.917Z,97798.00
2019-05-29T12:31:28.129Z,97795.00
2019-05-29T12:34:06.695Z,97771.00
2019-05-29T12:36:33.331Z,97808.00
2019-05-29T12:39:05.677Z,97798.00
2019-05-29T12:41:36.854Z,97800.00
2019-05-29T12:44:08.160Z,97809.00
2019-05-29T12:46:39.679Z,97796.00
2019-05-29T12:49:11.221Z,97798.00
2019-05-29T12:51:43.070Z,97799.00
2019-05-29T12:54:14.628Z,97798.00
2019-05-29T12:56:45.730Z,97793.00
2019-05-29T12:59:17.009Z,97810.00
2019-05-29T13:01:48.579Z,97806.00
2019-05-29T13:04:19.780Z,97811.00
2019-05-29T13:06:50.997Z,97814.00
2019-05-29T13:09:22.620Z,97815.00
2019-05-29T13:11:54.349Z,97814.00
2019-05-29T13:14:25.577Z,97804.00
2019-05-29T13:16:56.776Z,97809.00
2019-05-29T13:19:28.051Z,97806.00
2019-05-29T13:21:59.344Z,97811.00
2019-05-29T13:24:30.620Z,97806.00
2019-05-29T13:27:01.912Z,97805.00
2019-05-29T13:29:33.050Z,97817.00
2019-05-29T13:32:06.033Z,97807.00
2019-05-29T13:34:37.585Z,97821.00
2019-05-29T13:37:09.825Z,97813.00
2019-05-29T13:39:41.229Z,97816.00
2019-05-29T13:42:12.534Z,97812.00
2019-05-29T13:44:43.806Z,97808.00
2019-05-29T13:47:15.092Z,97811.00
2019-05-29T13:49:46.230Z,97808.00
2019-05-29T13:52:17.534Z,97814.00
2019-05-29T13:54:48.768Z,97806.00
2019-05-29T13:57:19.952Z,97814.00
2019-05-29T13:59:51.419Z,97819.00
2019-05-29T14:02:22.857Z,97821.00
2019-05-29T14:04:54.455Z,97825.00
2019-05-29T14:07:26.318Z,97832.00
2019-05-29T14:09:58.838Z,97831.00
2019-05-29T14:12:30.554Z,97831.00
2019-05-29T14:15:02.169Z,97826.00
2019-05-29T14:17:34.888Z,97816.00
2019-05-29T14:20:06.894Z,97826.00
2019-05-29T14:22:38.223Z,97829.00
2019-05-29T14:25:13.234Z,97831.00
2019-05-29T14:27:44.488Z,97832.00
2019-05-29T14:30:18.367Z,97831.00
2019-05-29T14:32:49.491Z,97841.00
2019-05-29T14:35:20.792Z,97833.00
2019-05-29T14:37:52.393Z,97836.00
2019-05-29T14:40:23.673Z,97835.00
2019-05-29T14:42:54.721Z,97836.00
2019-05-29T14:45:26.430Z,97840.00
2019-05-29T14:47:57.605Z,97831.00
2019-05-29T14:50:29.123Z,97847.00
2019-05-29T14:53:00.299Z,97846.00
2019-05-29T14:55:32.516Z,97841.00
2019-05-29T14:58:03.733Z,97838.00
2019-05-29T15:00:35.229Z,97838.00
2019-05-29T15:03:07.380Z,97843.00
2019-05-29T15:05:39.044Z,97844.00
2019-05-29T15:08:10.222Z,97836.00
2019-05-29T15:10:41.859Z,97845.00
2019-05-29T15:13:15.128Z,97842.00
2019-05-29T15:15:46.799Z,97845.00
2019-05-29T15:18:19.166Z,97853.00
2019-05-29T15:20:51.560Z,97863.00
2019-05-29T15:23:23.411Z,97860.00
2019-05-29T15:25:54.614Z,97857.00
2019-05-29T15:28:26.111Z,97857.00
2019-05-29T15:30:57.485Z,97851.00
2019-05-29T15:33:28.687Z,97856.00
2019-05-29T15:36:00.168Z,97862.00
2019-05-29T15:38:32.837Z,97863.00
2019-05-29T15:41:04.494Z,97868.00
2019-05-29T15:43:36.446Z,97873.00
2019-05-29T15:46:09.974Z,97870.00
2019-05-29T15:48:41.015Z,97868.00
2019-05-29T15:51:13.212Z,97878.00
2019-05-29T15:53:44.478Z,97879.00
2019-05-29T15:56:25.403Z,97875.00
2019-05-29T15:58:48.648Z,97875.00
2019-05-29T16:01:19.852Z,97883.00
2019-05-29T16:03:51.143Z,97880.00
2019-05-29T16:06:22.543Z,97890.00
2019-05-29T16:08:53.754Z,97876.00
2019-05-29T16:11:26.385Z,97876.00
2019-05-29T16:13:57.764Z,97874.00
2019-05-29T16:16:28.928Z,97874.00
2019-05-29T16:19:00.585Z,97880.00
2019-05-29T16:21:31.882Z,97888.00
2019-05-29T16:24:03.130Z,97879.00
2019-05-29T16:26:34.361Z,97895.00
2019-05-29T16:29:05.603Z,97900.00
2019-05-29T16:31:37.143Z,97898.00
2019-05-29T16:34:08.450Z,97889.00
2019-05-29T16:36:39.973Z,97890.00
2019-05-29T16:39:11.516Z,97900.00
2019-05-29T16:41:43.739Z,97904.00
2019-05-29T16:44:16.333Z,97896.00
2019-05-29T16:46:47.691Z,97898.00
2019-05-29T16:49:18.992Z,97886.00
2019-05-29T16:51:50.816Z,97898.00
2019-05-29T16:54:23.212Z,97894.00
2019-05-29T16:56:54.666Z,97901.00
2019-05-29T16:59:29.795Z,97898.00
2019-05-29T17:01:59.202Z,97902.00
2019-05-29T17:04:30.378Z,97903.00
2019-05-29T17:07:01.976Z,97909.00
2019-05-29T17:09:33.505Z,97913.00
2019-05-29T17:12:04.786Z,97920.00
2019-05-29T17:14:36.332Z,97926.00
2019-05-29T17:17:08.333Z,97926.00
2019-05-29T17:19:40.579Z,97924.00
2019-05-29T17:22:11.819Z,97920.00
2019-05-29T17:24:42.926Z,97823.00
2019-05-29T17:27:14.539Z,97919.00
2019-05-29T17:29:46.057Z,97923.00
2019-05-29T17:32:17.352Z,97910.00
2019-05-29T17:34:49.904Z,97918.00
2019-05-29T17:37:21.276Z,97921.00
2019-05-29T17:39:52.612Z,97919.00
2019-05-29T17:42:24.511Z,97922.00
2019-05-29T17:44:56.873Z,97930.00
2019-05-29T17:47:29.085Z,97931.00
2019-05-29T17:50:00.606Z,97932.00
2019-05-29T17:52:32.039Z,97934.00
2019-05-29T17:55:03.445Z,97934.00
2019-05-29T17:57:36.749Z,97941.00
2019-05-29T18:00:12.421Z,97947.00
2019-05-29T18:02:51.943Z,97946.00
2019-05-29T18:05:18.607Z,97953.00
2019-05-29T18:07:50.044Z,97954.00
2019-05-29T18:10:22.812Z,97954.00
2019-05-29T18:12:54.879Z,97954.00
2019-05-29T18:15:29.890Z,97959.00
2019-05-29T18:18:00.034Z,97961.00
2019-05-29T18:20:31.352Z,97958.00
2019-05-29T18:23:03.716Z,97967.00
2019-05-29T18:25:34.983Z,97978.00
2019-05-29T18:28:06.461Z,97967.00
2019-05-29T18:30:37.721Z,97976.00
2019-05-29T18:33:09.017Z,97970.00
2019-05-29T18:35:40.445Z,97970.00
2019-05-29T18:38:11.684Z,97984.00
2019-05-29T18:40:42.877Z,97980.00
2019-05-29T18:43:14.542Z,97981.00
2019-05-29T18:45:46.656Z,97986.00
2019-05-29T18:48:17.875Z,97979.00
2019-05-29T18:50:49.503Z,97987.00
2019-05-29T18:53:20.881Z,97988.00
2019-05-29T18:55:53.322Z,97990.00
2019-05-29T18:58:24.630Z,97993.00
2019-05-29T19:00:56.523Z,98000.00
2019-05-29T19:03:27.986Z,97997.00
2019-05-29T19:05:59.503Z,97993.00
2019-05-29T19:08:31.921Z,97995.00
2019-05-29T19:11:03.457Z,97993.00
2019-05-29T19:13:35.414Z,97991.00
2019-05-29T19:16:06.707Z,97995.00
2019-05-29T19:18:38.423Z,98006.00
2019-05-29T19:21:09.631Z,98011.00
2019-05-29T19:23:40.986Z,97940.00
2019-05-29T19:26:12.272Z,98027.00
2019-05-29T19:28:43.887Z,98026.00
2019-05-29T19:31:15.088Z,98042.00
2019-05-29T19:33:46.490Z,98040.00
2019-05-29T19:36:17.844Z,98051.00
2019-05-29T19:38:50.178Z,98047.00
2019-05-29T19:41:21.504Z,98053.00
2019-05-29T19:43:54.257Z,98062.00
2019-05-29T19:46:26.378Z,98061.00
2019-05-29T19:48:57.600Z,98065.00
2019-05-29T19:51:29.205Z,98056.00
2019-05-29T19:54:00.889Z,98062.00
2019-05-29T19:56:32.152Z,98063.00
2019-05-29T19:59:03.478Z,98064.00
2019-05-29T20:01:39.976Z,98071.00
2019-05-29T20:04:08.280Z,98071.00
2019-05-29T20:06:39.878Z,98082.00
2019-05-29T20:09:11.209Z,98074.00
2019-05-29T20:11:42.891Z,98079.00
2019-05-29T20:14:14.292Z,98071.00
2019-05-29T20:16:45.844Z,98076.00
2019-05-29T20:19:17.147Z,98084.00
2019-05-29T20:21:49.041Z,98077.00
2019-05-29T20:24:20.354Z,98078.00
2019-05-29T20:26:51.831Z,98088.00
2019-05-29T20:29:23.425Z,98090.00
2019-05-29T20:31:56.038Z,98079.00
2019-05-29T20:34:27.244Z,98087.00
2019-05-29T20:36:58.517Z,98077.00
2019-05-29T20:39:30.205Z,98090.00
2019-05-29T20:42:01.607Z,98081.00
2019-05-29T20:44:32.922Z,98084.00
2019-05-29T20:47:04.536Z,98091.00
2019-05-29T20:49:36.029Z,98086.00
2019-05-29T20:52:07.451Z,98097.00
2019-05-29T20:54:39.743Z,98104.00
2019-05-29T20:57:11.462Z,98097.00
2019-05-29T20:59:42.941Z,98104.00
2019-05-29T21:02:14.529Z,98102.00
2019-05-29T21:04:46.079Z,98102.00
2019-05-29T21:07:17.372Z,98111.00
2019-05-29T21:09:49.084Z,98101.00
2019-05-29T21:12:20.281Z,98110.00
2019-05-29T21:14:51.584Z,98112.00
2019-05-29T21:17:22.798Z,98109.00
2019-05-29T21:19:54.685Z,98115.00
2019-05-29T21:22:25.932Z,98111.00
2019-05-29T21:25:03.908Z,98109.00
2019-05-29T21:27:30.737Z,98125.00
2019-05-29T21:30:01.882Z,98112.00
2019-05-29T21:32:33.124Z,98116.00
2019-05-29T21:35:04.461Z,98125.00
2019-05-29T21:37:36.204Z,98123.00
2019-05-29T21:40:08.215Z,98134.00
2019-05-29T21:42:40.543Z,98141.00
2019-05-29T21:45:12.375Z,98125.00
2019-05-29T21:47:45.049Z,98131.00
2019-05-29T21:50:16.401Z,98129.00
2019-05-29T21:52:47.742Z,98124.00
2019-05-29T21:55:19.129Z,98139.00
2019-05-29T21:57:50.653Z,98133.00
2019-05-29T22:00:31.144Z,98122.00
2019-05-29T22:03:04.795Z,98128.00
2019-05-29T22:05:36.374Z,98126.00
2019-05-29T22:08:08.089Z,98123.00
2019-05-29T22:10:39.386Z,98132.00
2019-05-29T22:13:10.584Z,98135.00
2019-05-29T22:15:42.243Z,98138.00
2019-05-29T22:18:13.617Z,98141.00
2019-05-29T22:20:44.893Z,98133.00
2019-05-29T22:23:16.128Z,98139.00
2019-05-29T22:25:47.533Z,98141.00
2019-05-29T22:28:18.949Z,98142.00
2019-05-29T22:30:53.379Z,98145.00
2019-05-29T22:33:24.719Z,98147.00
2019-05-29T22:35:57.490Z,98145.00
2019-05-29T22:38:29.158Z,98140.00
2019-05-29T22:41:01.899Z,98137.00
2019-05-29T22:43:33.389Z,98145.00
2019-05-29T22:46:04.834Z,98138.00
2019-05-29T22:48:36.195Z,98132.00
2019-05-29T22:51:07.874Z,98133.00
2019-05-29T22:53:39.450Z,98134.00
2019-05-29T22:56:10.667Z,98129.00
2019-05-29T22:58:41.909Z,98124.00
2019-05-29T23:01:15.121Z,98134.00
2019-05-29T23:03:46.230Z,98138.00
2019-05-29T23:06:17.458Z,98137.00
2019-05-29T23:08:49.466Z,98130.00
2019-05-29T23:11:21.014Z,98131.00
2019-05-29T23:13:52.379Z,98135.00
2019-05-29T23:16:23.577Z,98130.00
2019-05-29T23:18:54.846Z,98130.00
2019-05-29T23:21:26.074Z,98135.00
2019-05-29T23:23:57.922Z,98125.00
2019-05-29T23:26:29.109Z,98150.00
2019-05-29T23:29:00.965Z,98124.00
2019-05-29T23:31:32.388Z,98121.00
2019-05-29T23:34:05.702Z,98136.00
2019-05-29T23:36:37.006Z,98122.00
2019-05-29T23:39:08.697Z,98133.00
2019-05-29T23:41:39.953Z,98123.00
2019-05-29T23:44:11.186Z,98130.00
2019-05-29T23:46:42.483Z,98128.00
2019-05-29T23:49:13.731Z,98118.00
2019-05-29T23:51:45.438Z,98137.00
2019-05-29T23:54:16.665Z,98124.00
2019-05-29T23:56:48.240Z,98125.00
2019-05-29T23:59:19.436Z,98120.00
